createdAt,value
2022-10-02T00:02:46.812Z,2.80
2022-10-02T00:05:53.687Z,2.47
2022-10-02T00:09:02.483Z,2.27
2022-10-02T00:12:08.721Z,3.00
2022-10-02T00:15:19.739Z,2.60
2022-10-02T00:18:27.202Z,2.23
2022-10-02T00:21:49.862Z,2.07
2022-10-02T00:24:59.664Z,2.40
2022-10-02T00:28:13.465Z,2.37
2022-10-02T00:31:28.815Z,2.27
2022-10-02T00:34:41.115Z,2.10
2022-10-02T00:37:54.131Z,1.93
2022-10-02T00:41:17.115Z,1.93
2022-10-02T00:44:41.169Z,2.20
2022-10-02T00:47:54.405Z,2.50
2022-10-02T00:51:06.924Z,2.17
2022-10-02T00:54:25.002Z,2.10
2022-10-02T00:57:43.428Z,2.60
2022-10-02T01:00:55.445Z,2.77
2022-10-02T01:04:01.874Z,2.07
2022-10-02T01:07:07.227Z,2.17
2022-10-02T01:10:11.098Z,1.70
2022-10-02T01:13:14.259Z,2.63
2022-10-02T01:16:17.964Z,1.70
2022-10-02T01:19:29.422Z,2.27
2022-10-02T01:22:38.310Z,2.20
2022-10-02T01:25:43.576Z,2.30
2022-10-02T01:28:46.704Z,2.40
2022-10-02T01:31:49.879Z,2.53
2022-10-02T01:34:53.438Z,2.17
2022-10-02T01:37:56.854Z,1.97
2022-10-02T01:41:01.134Z,2.17
2022-10-02T01:44:04.241Z,2.20
2022-10-02T01:47:13.143Z,2.37
2022-10-02T01:50:24.312Z,2.27
2022-10-02T01:53:34.024Z,2.40
2022-10-02T01:56:45.286Z,2.50
2022-10-02T01:59:57.190Z,2.10
2022-10-02T02:03:12.477Z,2.00
2022-10-02T02:06:22.546Z,2.20
2022-10-02T02:09:33.455Z,2.33
2022-10-02T02:12:43.892Z,2.20
2022-10-02T02:15:53.277Z,2.07
2022-10-02T02:19:04.131Z,1.70
2022-10-02T02:22:11.237Z,1.87
2022-10-02T02:25:18.987Z,2.10
2022-10-02T02:28:26.266Z,2.33
2022-10-02T02:31:33.747Z,2.40
2022-10-02T02:34:41.783Z,1.97
2022-10-02T02:37:47.691Z,1.97
2022-10-02T02:40:51.594Z,1.97
2022-10-02T02:44:01.039Z,2.50
2022-10-02T02:47:08.917Z,2.10
2022-10-02T02:50:15.622Z,1.67
2022-10-02T02:53:22.421Z,2.03
2022-10-02T02:56:28.513Z,2.33
2022-10-02T02:59:34.976Z,2.13
2022-10-02T03:02:38.018Z,2.00
2022-10-02T03:05:45.903Z,1.90
2022-10-02T03:08:52.242Z,2.00
2022-10-02T03:12:08.082Z,1.67
2022-10-02T03:15:39.952Z,1.83
2022-10-02T03:19:01.160Z,2.00
2022-10-02T03:22:10.487Z,1.90
2022-10-02T03:25:16.618Z,2.27
2022-10-02T03:28:50.612Z,1.90
2022-10-02T03:31:50.824Z,1.53
2022-10-02T03:34:54.279Z,1.67
2022-10-02T03:38:00.818Z,2.20
2022-10-02T03:41:03.847Z,1.60
2022-10-02T03:44:06.787Z,1.83
2022-10-02T03:47:11.122Z,1.73
2022-10-02T03:50:14.473Z,1.70
2022-10-02T03:53:19.409Z,2.13
2022-10-02T03:56:37.739Z,1.80
2022-10-02T03:59:45.665Z,1.90
2022-10-02T04:02:55.123Z,1.50
2022-10-02T04:06:02.445Z,1.80
2022-10-02T04:09:10.662Z,2.10
2022-10-02T04:12:17.591Z,1.80
2022-10-02T04:15:26.623Z,1.83
2022-10-02T04:18:37.710Z,1.47
2022-10-02T04:21:46.510Z,1.90
2022-10-02T04:24:54.507Z,1.53
2022-10-02T04:28:00.422Z,1.63
2022-10-02T04:31:06.360Z,1.83
2022-10-02T04:34:14.787Z,1.90
2022-10-02T04:37:35.288Z,1.97
2022-10-02T04:40:50.523Z,1.87
2022-10-02T04:44:03.587Z,1.70
2022-10-02T04:47:22.987Z,1.90
2022-10-02T04:50:45.998Z,1.60
2022-10-02T04:54:07.091Z,2.30
2022-10-02T04:57:29.129Z,2.20
2022-10-02T05:00:41.795Z,1.83
2022-10-02T05:04:23.416Z,2.10
2022-10-02T05:07:46.752Z,2.17
2022-10-02T05:11:05.846Z,2.30
2022-10-02T05:14:26.660Z,2.20
2022-10-02T05:17:53.557Z,2.30
2022-10-02T05:21:13.131Z,2.10
2022-10-02T05:24:34.802Z,2.43
2022-10-02T05:27:56.990Z,2.50
2022-10-02T05:31:13.354Z,2.23
2022-10-02T05:34:29.195Z,2.47
2022-10-02T05:37:48.163Z,2.60
2022-10-02T05:41:02.020Z,2.70
2022-10-02T05:44:13.315Z,2.83
2022-10-02T05:47:20.229Z,2.57
2022-10-02T05:50:28.259Z,2.67
2022-10-02T05:53:36.188Z,3.33
2022-10-02T05:56:45.598Z,3.10
2022-10-02T06:00:08.842Z,3.23
2022-10-02T06:03:18.130Z,3.30
2022-10-02T06:06:25.064Z,3.13
2022-10-02T06:09:31.949Z,2.70
2022-10-02T06:12:40.935Z,2.90
2022-10-02T06:15:49.046Z,2.50
2022-10-02T06:18:56.740Z,3.00
2022-10-02T06:22:07.251Z,3.13
2022-10-02T06:25:15.000Z,2.37
2022-10-02T06:28:25.288Z,3.17
2022-10-02T06:31:37.930Z,2.10
2022-10-02T06:34:44.563Z,2.30
2022-10-02T06:37:59.280Z,2.00
2022-10-02T06:41:09.205Z,2.23
2022-10-02T06:44:27.668Z,2.10
2022-10-02T06:47:44.575Z,1.43
2022-10-02T06:50:56.211Z,1.63
2022-10-02T06:54:11.876Z,1.40
2022-10-02T06:57:36.193Z,1.20
2022-10-02T07:00:47.787Z,1.60
2022-10-02T07:04:14.100Z,1.30
2022-10-02T07:07:30.731Z,1.43
2022-10-02T07:10:39.293Z,2.10
2022-10-02T07:13:57.370Z,1.80
2022-10-02T07:17:22.401Z,1.40
2022-10-02T07:20:37.548Z,1.80
2022-10-02T07:23:56.744Z,1.20
2022-10-02T07:27:11.134Z,1.50
2022-10-02T07:30:17.228Z,1.90
2022-10-02T07:33:31.450Z,1.93
2022-10-02T07:36:43.383Z,2.13
2022-10-02T07:39:57.205Z,2.30
2022-10-02T07:43:12.523Z,2.37
2022-10-02T07:46:21.314Z,1.80
2022-10-02T07:49:38.073Z,1.87
2022-10-02T07:52:50.523Z,1.97
2022-10-02T07:55:55.793Z,1.80
2022-10-02T07:59:05.094Z,1.87
2022-10-02T08:02:18.731Z,1.93
2022-10-02T08:05:25.747Z,2.40
2022-10-02T08:08:33.005Z,1.90
2022-10-02T08:11:43.286Z,2.47
2022-10-02T08:14:52.542Z,1.70
2022-10-02T08:18:16.407Z,1.80
2022-10-02T08:21:27.075Z,2.27
2022-10-02T08:24:37.419Z,2.10
2022-10-02T08:27:50.100Z,1.90
2022-10-02T08:30:53.089Z,2.20
2022-10-02T08:33:57.919Z,2.10
2022-10-02T08:37:17.889Z,2.00
2022-10-02T08:40:57.406Z,2.50
2022-10-02T08:44:36.030Z,2.10
2022-10-02T08:48:17.739Z,2.00
2022-10-02T08:51:56.714Z,2.30
2022-10-02T08:55:22.657Z,1.77
2022-10-02T08:59:05.393Z,2.30
2022-10-02T09:02:50.574Z,1.97
2022-10-02T09:06:28.200Z,2.23
2022-10-02T09:10:13.650Z,2.30
2022-10-02T09:13:56.948Z,2.40
2022-10-02T09:17:17.734Z,2.53
2022-10-02T09:20:48.999Z,2.83
2022-10-02T09:24:34.032Z,2.00
2022-10-02T09:28:04.844Z,2.00
2022-10-02T09:31:41.082Z,2.43
2022-10-02T09:35:04.047Z,2.37
2022-10-02T09:38:46.560Z,2.47
2022-10-02T09:42:16.754Z,2.40
2022-10-02T09:45:46.671Z,2.60
2022-10-02T09:49:26.849Z,2.03
2022-10-02T09:53:02.694Z,1.77
2022-10-02T09:56:27.482Z,1.80
2022-10-02T09:59:59.527Z,1.97
2022-10-02T10:03:38.200Z,1.57
2022-10-02T10:07:16.302Z,1.67
2022-10-02T10:11:11.137Z,1.83
2022-10-02T10:14:50.061Z,1.57
2022-10-02T10:18:34.135Z,1.23
2022-10-02T10:22:16.147Z,1.67
2022-10-02T10:25:50.187Z,1.50
2022-10-02T10:29:32.907Z,1.23
2022-10-02T10:33:11.817Z,1.60
2022-10-02T10:37:04.023Z,1.93
2022-10-02T10:40:28.424Z,1.50
2022-10-02T10:43:56.099Z,1.43
2022-10-02T10:47:52.984Z,1.97
2022-10-02T10:51:03.575Z,1.90
2022-10-02T10:54:44.770Z,1.20
2022-10-02T10:58:14.897Z,1.97
2022-10-02T11:01:20.086Z,1.80
2022-10-02T11:04:43.680Z,1.53
2022-10-02T11:08:07.428Z,1.90
2022-10-02T11:11:20.629Z,2.27
2022-10-02T11:14:34.198Z,2.23
2022-10-02T11:18:03.968Z,1.93
2022-10-02T11:21:21.680Z,2.00
2022-10-02T11:25:12.542Z,2.10
2022-10-02T11:28:56.248Z,2.50
2022-10-02T11:32:19.372Z,2.40
2022-10-02T11:35:26.376Z,2.33
2022-10-02T11:38:56.082Z,2.27
2022-10-02T11:42:22.026Z,2.30
2022-10-02T11:46:06.558Z,2.23
2022-10-02T11:49:48.213Z,1.93
2022-10-02T11:53:08.450Z,2.17
2022-10-02T11:56:43.039Z,2.17
2022-10-02T12:00:13.966Z,2.10
2022-10-02T12:03:27.699Z,2.30
2022-10-02T12:06:43.944Z,2.00
2022-10-02T12:09:57.866Z,1.90
2022-10-02T12:13:26.298Z,2.00
2022-10-02T12:16:48.646Z,1.80
2022-10-02T12:20:23.889Z,2.30
2022-10-02T12:23:55.890Z,2.60
2022-10-02T12:27:09.791Z,2.13
2022-10-02T12:30:15.997Z,2.40
2022-10-02T12:33:27.808Z,1.70
2022-10-02T12:36:56.463Z,1.93
2022-10-02T12:40:10.118Z,2.20
2022-10-02T12:43:44.643Z,2.63
2022-10-02T12:47:04.870Z,2.27
2022-10-02T12:50:23.313Z,2.03
2022-10-02T12:54:04.574Z,2.07
2022-10-02T12:57:41.779Z,2.27
2022-10-02T13:01:12.027Z,2.33
2022-10-02T13:04:41.763Z,2.50
2022-10-02T13:08:25.541Z,2.33
2022-10-02T13:11:40.953Z,3.10
2022-10-02T13:15:15.064Z,2.07
2022-10-02T13:18:44.753Z,2.33
2022-10-02T13:21:56.599Z,2.20
2022-10-02T13:25:19.812Z,2.37
2022-10-02T13:28:49.837Z,2.90
2022-10-02T13:32:10.322Z,2.27
2022-10-02T13:35:37.925Z,2.70
2022-10-02T13:38:59.430Z,2.17
2022-10-02T13:42:18.040Z,2.10
2022-10-02T13:45:31.680Z,2.47
2022-10-02T13:48:46.712Z,2.10
2022-10-02T13:51:57.542Z,2.30
2022-10-02T13:55:16.450Z,2.13
2022-10-02T13:58:31.770Z,2.33
2022-10-02T14:01:50.092Z,2.17
2022-10-02T14:05:00.095Z,1.87
2022-10-02T14:08:16.901Z,2.30
2022-10-02T14:11:31.331Z,2.30
2022-10-02T14:14:51.114Z,2.60
2022-10-02T14:18:17.658Z,2.40
2022-10-02T14:21:28.331Z,3.07
2022-10-02T14:25:01.291Z,2.07
2022-10-02T14:28:29.375Z,2.63
2022-10-02T14:32:16.046Z,2.60
2022-10-02T14:35:34.557Z,2.37
2022-10-02T14:39:01.418Z,2.10
2022-10-02T14:42:20.419Z,2.17
2022-10-02T14:45:54.352Z,2.83
2022-10-02T14:49:19.078Z,2.60
2022-10-02T14:52:37.337Z,2.33
2022-10-02T14:56:01.855Z,2.60
2022-10-02T14:59:25.475Z,2.00
2022-10-02T15:02:45.435Z,2.23
2022-10-02T15:06:13.573Z,2.40
2022-10-02T15:09:23.536Z,2.50
2022-10-02T15:12:34.461Z,2.93
2022-10-02T15:15:42.175Z,2.63
2022-10-02T15:18:50.298Z,2.17
2022-10-02T15:21:59.158Z,2.60
2022-10-02T15:25:17.979Z,2.50
2022-10-02T15:28:37.958Z,2.03
2022-10-02T15:31:46.087Z,2.87
2022-10-02T15:34:59.439Z,2.70
2022-10-02T15:38:26.322Z,3.17
2022-10-02T15:41:46.567Z,2.63
2022-10-02T15:45:16.867Z,2.27
2022-10-02T15:48:48.972Z,3.07
2022-10-02T15:52:11.361Z,3.20
2022-10-02T15:55:21.882Z,2.80
2022-10-02T15:58:51.038Z,3.40
2022-10-02T16:02:08.278Z,2.90
2022-10-02T16:05:29.834Z,2.60
2022-10-02T16:09:07.633Z,3.10
2022-10-02T16:12:33.733Z,2.70
2022-10-02T16:15:51.989Z,2.33
2022-10-02T16:19:08.330Z,3.37
2022-10-02T16:22:24.295Z,2.73
2022-10-02T16:25:53.057Z,2.40
2022-10-02T16:29:10.723Z,3.20
2022-10-02T16:32:27.878Z,3.50
2022-10-02T16:36:08.201Z,4.23
2022-10-02T16:39:38.510Z,3.00
2022-10-02T16:42:52.793Z,3.80
2022-10-02T16:46:06.029Z,3.00
2022-10-02T16:49:23.623Z,3.40
2022-10-02T16:52:33.925Z,3.43
2022-10-02T16:55:41.313Z,3.00
2022-10-02T16:58:51.224Z,3.40
2022-10-02T17:02:16.866Z,3.57
2022-10-02T17:05:31.257Z,2.80
2022-10-02T17:08:42.709Z,3.83
2022-10-02T17:11:52.349Z,3.50
2022-10-02T17:15:00.424Z,3.47
2022-10-02T17:18:20.643Z,3.60
2022-10-02T17:21:28.898Z,3.10
2022-10-02T17:24:38.727Z,3.17
2022-10-02T17:27:51.328Z,3.17
2022-10-02T17:31:15.126Z,3.43
2022-10-02T17:34:21.935Z,3.37
2022-10-02T17:37:53.512Z,3.93
2022-10-02T17:41:07.957Z,3.00
2022-10-02T17:44:23.309Z,3.50
2022-10-02T17:47:48.583Z,3.53
2022-10-02T17:51:39.047Z,4.30
2022-10-02T17:55:09.749Z,3.27
2022-10-02T17:58:20.172Z,2.87
2022-10-02T18:01:36.601Z,3.50
2022-10-02T18:04:56.847Z,3.17
2022-10-02T18:08:12.448Z,3.33
2022-10-02T18:11:43.147Z,3.67
2022-10-02T18:15:11.699Z,3.30
2022-10-02T18:18:24.874Z,3.37
2022-10-02T18:21:37.518Z,3.50
2022-10-02T18:25:11.759Z,3.10
2022-10-02T18:28:32.830Z,3.07
2022-10-02T18:32:06.948Z,3.27
2022-10-02T18:35:26.314Z,3.57
2022-10-02T18:38:32.062Z,3.60
2022-10-02T18:41:48.083Z,3.50
2022-10-02T18:45:04.255Z,2.97
2022-10-02T18:48:22.449Z,3.80
2022-10-02T18:51:39.220Z,2.90
2022-10-02T18:54:55.716Z,2.83
2022-10-02T18:58:12.121Z,3.27
2022-10-02T19:01:38.204Z,3.23
2022-10-02T19:05:00.627Z,3.13
2022-10-02T19:08:18.686Z,3.30
2022-10-02T19:11:28.410Z,3.20
2022-10-02T19:14:36.720Z,3.03
2022-10-02T19:17:41.254Z,3.50
2022-10-02T19:20:50.575Z,3.23
2022-10-02T19:24:02.252Z,3.33
2022-10-02T19:27:08.584Z,3.00
2022-10-02T19:30:25.365Z,3.57
2022-10-02T19:33:41.224Z,3.60
2022-10-02T19:36:50.072Z,2.70
2022-10-02T19:39:56.354Z,3.00
2022-10-02T19:43:07.217Z,3.07
2022-10-02T19:46:11.260Z,3.53
2022-10-02T19:49:21.965Z,3.20
2022-10-02T19:52:37.536Z,2.97
2022-10-02T19:55:43.355Z,3.37
2022-10-02T19:58:50.036Z,3.00
2022-10-02T20:01:54.862Z,3.60
2022-10-02T20:05:03.606Z,3.90
2022-10-02T20:08:14.104Z,3.07
2022-10-02T20:11:23.151Z,3.17
2022-10-02T20:14:32.008Z,3.07
2022-10-02T20:17:35.267Z,3.20
2022-10-02T20:20:42.689Z,3.20
2022-10-02T20:23:50.090Z,3.50
2022-10-02T20:26:58.032Z,3.80
2022-10-02T20:30:06.063Z,3.43
2022-10-02T20:33:14.619Z,3.10
2022-10-02T20:36:25.058Z,3.13
2022-10-02T20:39:34.816Z,3.80
2022-10-02T20:42:43.669Z,3.53
2022-10-02T20:45:50.501Z,3.37
2022-10-02T20:49:08.857Z,3.40
2022-10-02T20:52:49.085Z,3.37
2022-10-02T20:55:56.512Z,2.93
2022-10-02T20:59:39.374Z,3.53
2022-10-02T21:03:17.089Z,3.03
2022-10-02T21:06:37.524Z,3.30
2022-10-02T21:10:29.878Z,4.43
2022-10-02T21:14:02.889Z,3.40
2022-10-02T21:17:39.554Z,3.23
2022-10-02T21:21:11.609Z,3.10
2022-10-02T21:24:56.856Z,3.17
2022-10-02T21:28:35.310Z,2.80
2022-10-02T21:31:56.289Z,2.57
2022-10-02T21:35:08.745Z,2.80
2022-10-02T21:38:39.504Z,3.00
2022-10-02T21:42:17.583Z,2.87
2022-10-02T21:46:08.237Z,3.03
2022-10-02T21:49:42.168Z,2.77
2022-10-02T21:53:23.895Z,3.03
2022-10-02T21:57:02.502Z,3.10
2022-10-02T22:00:13.791Z,3.23
2022-10-02T22:03:49.173Z,3.20
2022-10-02T22:06:58.902Z,2.70
2022-10-02T22:10:06.475Z,3.00
2022-10-02T22:13:18.108Z,3.37
2022-10-02T22:16:32.338Z,3.20
2022-10-02T22:19:58.482Z,2.60
2022-10-02T22:23:14.815Z,2.70
2022-10-02T22:26:31.610Z,2.13
2022-10-02T22:29:44.784Z,2.53
2022-10-02T22:33:13.260Z,2.23
2022-10-02T22:36:42.934Z,2.90
2022-10-02T22:39:53.795Z,3.07
2022-10-02T22:43:01.286Z,2.47
2022-10-02T22:46:08.335Z,2.70
2022-10-02T22:49:20.839Z,2.30
2022-10-02T22:52:29.035Z,2.40
2022-10-02T22:55:37.102Z,2.63
2022-10-02T22:58:45.119Z,2.17
2022-10-02T23:01:54.650Z,2.37
2022-10-02T23:05:05.881Z,2.60
2022-10-02T23:08:23.751Z,2.57
2022-10-02T23:11:31.703Z,2.93
2022-10-02T23:14:50.611Z,2.17
2022-10-02T23:17:59.070Z,1.83
2022-10-02T23:21:09.834Z,2.80
2022-10-02T23:24:25.615Z,2.30
2022-10-02T23:27:37.054Z,2.53
2022-10-02T23:30:45.007Z,2.30
2022-10-02T23:33:54.588Z,2.40
2022-10-02T23:37:01.860Z,2.53
2022-10-02T23:40:42.399Z,2.30
2022-10-02T23:43:51.141Z,2.10
2022-10-02T23:47:03.793Z,2.10
2022-10-02T23:50:20.569Z,2.07
2022-10-02T23:53:56.263Z,2.03
2022-10-02T23:57:17.970Z,2.47
